Time,TemperatureF,DewpointF,PressureIn,WindDirection,WindDirectionDegrees,WindSpeedMPH,WindSpeedGustMPH,Humidity,HourlyPrecipIn,Conditions,Clouds,dailyrainin,SoftwareType,DateUTC
2013-07-21 00:00:00,72.6,69.2,30.00,ENE,63,1.5,8.0,89,0.04,,,0.00,VWS V14.01,2013-07-21 05:00:00,
2013-07-21 00:01:00,72.6,69.2,30.00,ENE,65,1.5,1.5,89,0.00,,,0.00,VWS V14.01,2013-07-21 05:01:00,
2013-07-21 00:06:00,72.6,69.2,30.00,NNE,27,0.0,4.0,89,0.00,,,0.00,VWS V14.01,2013-07-21 05:06:00,
2013-07-21 00:11:00,72.6,69.5,29.99,ENE,73,1.5,6.0,90,0.00,,,0.00,VWS V14.01,2013-07-21 05:11:00,
2013-07-21 00:16:00,72.6,69.5,29.99,ENE,67,3.0,6.0,90,0.00,,,0.00,VWS V14.01,2013-07-21 05:16:00,
2013-07-21 00:21:00,72.7,69.6,29.99,ENE,72,3.0,6.0,90,0.00,,,0.00,VWS V14.01,2013-07-21 05:21:00,
2013-07-21 00:26:00,72.7,69.6,29.99,ESE,114,0.0,6.0,90,0.00,,,0.00,VWS V14.01,2013-07-21 05:26:00,
2013-07-21 00:31:00,72.7,69.6,29.98,SE,125,1.5,6.0,90,0.00,,,0.00,VWS V14.01,2013-07-21 05:31:00,
2013-07-21 00:36:00,72.8,69.4,29.98,ENE,65,1.5,6.0,89,0.00,,,0.00,VWS V14.01,2013-07-21 05:36:00,
2013-07-21 00:41:00,72.9,69.5,29.98,East,101,0.0,6.0,89,0.00,,,0.00,VWS V14.01,2013-07-21 05:41:00,
2013-07-21 00:46:00,73.0,69.6,29.98,SE,134,1.5,6.0,89,0.00,,,0.00,VWS V14.01,2013-07-21 05:46:00,
2013-07-21 00:51:00,73.1,69.7,29.98,East,85,0.0,6.0,89,0.00,,,0.00,VWS V14.01,2013-07-21 05:51:00,
2013-07-21 00:56:00,73.1,69.7,29.98,ESE,103,0.0,6.0,89,0.00,,,0.00,VWS V14.01,2013-07-21 05:56:00,
2013-07-21 01:00:00,72.6,69.2,30.00,ENE,63,1.5,8.0,89,0.04,,,0.00,VWS V15.00,2013-07-21 06:00:00,
2013-07-21 01:01:00,73.2,69.8,29.98,East,101,0.0,6.0,89,0.00,,,0.00,VWS V14.01,2013-07-21 06:01:00,
2013-07-21 01:06:00,73.2,69.4,29.98,ESE,117,0.0,6.0,88,0.00,,,0.00,VWS V14.01,2013-07-21 06:06:00,
2013-07-21 01:11:00,73.3,69.5,29.98,ESE,109,3.0,6.0,88,0.00,,,0.00,VWS V14.01,2013-07-21 06:11:00,
2013-07-21 01:16:00,73.4,69.6,29.98,ESE,113,0.0,6.0,88,0.00,,,0.00,VWS V14.01,2013-07-21 06:16:00,
2013-07-21 01:21:00,73.4,69.6,29.98,East,79,1.5,6.0,88,0.00,,,0.00,VWS V14.01,2013-07-21 06:21:00,
2013-07-21 01:26:00,73.3,69.5,29.98,SE,124,0.0,6.0,88,0.00,,,0.00,VWS V14.01,2013-07-21 06:26:00,
2013-07-21 01:31:00,73.3,69.5,29.97,SSE,148,0.0,6.0,88,0.00,,,0.00,VWS V14.01,2013-07-21 06:31:00,
2013-07-21 01:36:00,73.3,69.5,29.97,East,80,0.0,6.0,88,0.00,,,0.00,VWS V14.01,2013-07-21 06:36:00,
2013-07-21 01:41:00,73.3,69.2,29.97,SSE,166,0.0,6.0,87,0.00,,,0.00,VWS V14.01,2013-07-21 06:41:00,
2013-07-21 01:46:00,73.2,69.4,29.97,SSE,166,0.0,6.0,88,0.00,,,0.00,VWS V14.01,2013-07-21 06:46:00,
2013-07-21 01:51:00,73.1,69.3,29.98,SW,214,0.0,6.0,88,0.00,,,0.00,VWS V14.01,2013-07-21 06:51:00,
2013-07-21 01:56:00,73.0,69.2,29.98,North,4,0.0,6.0,88,0.00,,,0.00,VWS V14.01,2013-07-21 06:56:00,
2013-07-21 02:00:00,72.9,69.5,29.98,NW,322,0.0,6.0,89,0.00,,,0.00,VWS V14.01,2013-07-21 07:00:00,
2013-07-21 02:01:00,72.8,69.4,29.98,NNW,337,3.0,6.0,89,0.00,,,0.00,VWS V14.01,2013-07-21 07:01:00,
2013-07-21 02:06:00,72.5,69.1,29.98,North,10,1.5,6.0,89,0.00,,,0.00,VWS V14.01,2013-07-21 07:06:00,
2013-07-21 02:11:00,72.0,68.6,29.98,NNE,19,3.0,6.0,89,0.00,,,0.00,VWS V14.01,2013-07-21 07:11:00,
2013-07-21 02:16:00,71.7,68.6,29.98,NW,314,3.0,6.0,90,0.00,,,0.00,VWS V14.01,2013-07-21 07:16:00,
2013-07-21 02:21:00,71.5,68.4,29.97,NNE,20,1.5,6.0,90,0.00,,,0.00,VWS V14.01,2013-07-21 07:21:00,
2013-07-21 02:26:00,71.3,68.2,29.97,NW,309,0.0,6.0,90,0.00,,,0.00,VWS V14.01,2013-07-21 07:26:00,
2013-07-21 02:31:00,71.2,68.1,29.97,NW,325,0.0,6.0,90,0.00,,,0.00,VWS V14.01,2013-07-21 07:31:00,
2013-07-21 02:36:00,71.2,68.1,29.97,NNW,347,0.0,6.0,90,0.00,,,0.00,VWS V14.01,2013-07-21 07:36:00,
2013-07-21 02:41:00,71.1,68.3,29.97,North,349,1.5,6.0,91,0.00,,,0.00,VWS V14.01,2013-07-21 07:41:00,
2013-07-21 02:46:00,71.0,68.2,29.96,North,5,0.0,6.0,91,0.00,,,0.00,VWS V14.01,2013-07-21 07:46:00,
2013-07-21 02:51:00,70.9,68.2,29.96,North,5,0.0,6.0,91,0.00,,,0.00,VWS V14.01,2013-07-21 07:51:00,
2013-07-21 02:56:00,70.9,68.2,29.96,North,349,0.0,6.0,91,0.00,,,0.00,VWS V14.01,2013-07-21 07:56:00,
2013-07-21 03:00:00,72.9,69.5,29.98,NW,322,0.0,6.0,89,0.00,,,0.00,VWS V15.00,2013-07-21 08:00:00,
2013-07-21 03:01:00,70.7,67.9,29.96,NNW,346,0.0,6.0,91,0.00,,,0.00,VWS V14.01,2013-07-21 08:01:00,
2013-07-21 03:06:00,70.7,67.9,29.96,NNW,345,0.0,6.0,91,0.00,,,0.00,VWS V14.01,2013-07-21 08:06:00,
2013-07-21 03:11:00,70.6,67.8,29.96,NW,321,0.0,6.0,91,0.00,,,0.00,VWS V14.01,2013-07-21 08:11:00,
2013-07-21 03:16:00,70.5,68.1,29.96,NW,322,0.0,6.0,92,0.00,,,0.00,VWS V14.01,2013-07-21 08:16:00,
2013-07-21 03:21:00,70.3,67.9,29.96,NW,321,0.0,6.0,92,0.00,,,0.00,VWS V14.01,2013-07-21 08:21:00,
2013-07-21 03:26:00,70.2,67.8,29.96,NW,321,0.0,6.0,92,0.00,,,0.00,VWS V14.01,2013-07-21 08:26:00,
2013-07-21 03:31:00,70.1,67.7,29.95,NW,322,0.0,6.0,92,0.00,,,0.00,VWS V14.01,2013-07-21 08:31:00,
2013-07-21 03:36:00,70.1,67.7,29.96,NW,323,0.0,6.0,92,0.00,,,0.00,VWS V14.01,2013-07-21 08:36:00,
2013-07-21 03:41:00,70.0,67.6,29.96,NW,323,0.0,6.0,92,0.00,,,0.00,VWS V14.01,2013-07-21 08:41:00,
2013-07-21 03:46:00,70.0,67.9,29.96,NNE,13,0.0,6.0,93,0.00,,,0.00,VWS V14.01,2013-07-21 08:46:00,
2013-07-21 03:51:00,70.0,67.9,29.96,NNE,13,0.0,6.0,93,0.00,,,0.00,VWS V14.01,2013-07-21 08:51:00,
2013-07-21 03:56:00,69.9,67.8,29.96,NNE,13,0.0,6.0,93,0.00,,,0.00,VWS V14.01,2013-07-21 08:56:00,
2013-07-21 04:00:00,69.9,67.8,29.96,NNE,13,0.0,6.0,93,0.00,,,0.00,VWS V14.01,2013-07-21 09:00:00,
2013-07-21 04:01:00,69.9,67.8,29.96,NNE,13,0.0,0.0,93,0.00,,,0.00,VWS V14.01,2013-07-21 09:01:00,
2013-07-21 04:06:00,69.9,67.8,29.96,NNE,13,0.0,0.0,93,0.00,,,0.00,VWS V14.01,2013-07-21 09:06:00,
2013-07-21 04:11:00,69.8,67.7,29.97,NNE,13,0.0,1.0,93,0.00,,,0.00,VWS V14.01,2013-07-21 09:11:00,
2013-07-21 04:15:00,69.7,67.6,29.96,NNE,13,0.0,1.0,93,0.00,,,0.00,VWS V14.01,2013-07-21 09:15:00,
2013-07-21 04:20:00,69.6,67.5,29.96,NNE,13,0.0,1.0,93,0.00,,,0.00,VWS V14.01,2013-07-21 09:20:00,
2013-07-21 04:25:00,69.6,67.5,29.96,NNE,13,0.0,1.0,93,0.00,,,0.00,VWS V14.01,2013-07-21 09:25:00,
2013-07-21 04:30:00,69.5,67.4,29.96,NNE,13,0.0,1.0,93,0.00,,,0.00,VWS V14.01,2013-07-21 09:30:00,
2013-07-21 04:35:00,69.5,67.4,29.96,NNE,13,0.0,1.0,93,0.00,,,0.00,VWS V14.01,2013-07-21 09:35:00,
2013-07-21 04:40:00,69.4,67.3,29.95,NNE,13,0.0,1.0,93,0.00,,,0.00,VWS V14.01,2013-07-21 09:40:00,
2013-07-21 04:45:00,69.3,67.5,29.95,NNE,13,0.0,1.0,94,0.00,,,0.00,VWS V14.01,2013-07-21 09:45:00,
2013-07-21 04:50:00,69.3,67.5,29.96,NNE,13,0.0,1.0,94,0.00,,,0.00,VWS V14.01,2013-07-21 09:50:00,
2013-07-21 04:55:00,69.3,67.5,29.96,NNE,13,0.0,1.0,94,0.00,,,0.00,VWS V14.01,2013-07-21 09:55:00,
2013-07-21 05:00:00,69.3,67.5,29.97,NNE,13,0.0,1.0,94,0.00,,,0.00,VWS V14.01,2013-07-21 10:00:00,
2013-07-21 05:06:00,69.4,67.6,29.97,North,11,0.0,1.0,94,0.00,,,0.00,VWS V14.01,2013-07-21 10:06:00,
2013-07-21 05:11:00,69.6,67.8,29.98,NW,313,0.0,1.0,94,0.00,,,0.00,VWS V14.01,2013-07-21 10:11:00,
2013-07-21 05:16:00,69.8,67.7,29.98,NW,314,0.0,1.0,93,0.00,,,0.00,VWS V14.01,2013-07-21 10:16:00,
2013-07-21 05:21:00,69.8,67.7,29.98,NW,307,0.0,2.0,93,0.00,,,0.00,VWS V14.01,2013-07-21 10:21:00,
2013-07-21 05:26:00,69.7,67.6,29.98,NW,309,1.5,2.0,93,0.00,,,0.00,VWS V14.01,2013-07-21 10:26:00,
2013-07-21 05:30:00,69.7,67.6,29.98,NW,309,0.0,2.0,93,0.00,,,0.00,VWS V14.01,2013-07-21 10:30:00,
2013-07-21 05:35:00,69.6,67.8,29.98,NW,307,0.0,2.0,94,0.00,,,0.00,VWS V14.01,2013-07-21 10:35:00,
2013-07-21 05:40:00,69.6,67.8,29.98,NW,307,0.0,2.0,94,0.00,,,0.00,VWS V14.01,2013-07-21 10:40:00,
2013-07-21 05:45:00,69.6,67.8,29.98,NW,307,0.0,2.0,94,0.00,,,0.00,VWS V14.01,2013-07-21 10:45:00,
2013-07-21 05:50:00,69.6,67.8,29.98,NW,308,0.0,2.0,94,0.00,,,0.00,VWS V14.01,2013-07-21 10:50:00,
2013-07-21 05:55:00,69.6,67.8,29.98,NW,307,0.0,2.0,94,0.00,,,0.00,VWS V14.01,2013-07-21 10:55:00,
2013-07-21 06:00:00,69.7,67.9,29.98,NW,309,0.0,2.0,94,0.00,,,0.00,VWS V14.01,2013-07-21 11:00:00,
2013-07-21 06:06:00,69.7,67.9,29.98,NW,309,0.0,2.0,94,0.00,,,0.00,VWS V14.01,2013-07-21 11:06:00,
2013-07-21 06:10:00,69.6,67.8,29.98,NW,309,0.0,2.0,94,0.00,,,0.00,VWS V14.01,2013-07-21 11:10:00,
2013-07-21 06:15:00,69.6,67.8,29.98,NW,309,0.0,2.0,94,0.00,,,0.00,VWS V14.01,2013-07-21 11:15:00,
2013-07-21 06:20:00,69.6,67.8,29.99,NW,309,0.0,2.0,94,0.00,,,0.00,VWS V14.01,2013-07-21 11:20:00,
2013-07-21 06:25:00,69.7,67.9,29.99,NW,309,0.0,2.0,94,0.00,,,0.00,VWS V14.01,2013-07-21 11:25:00,
2013-07-21 06:30:00,69.8,68.0,29.98,North,351,0.0,2.0,94,0.00,,,0.00,VWS V14.01,2013-07-21 11:30:00,
2013-07-21 06:35:00,69.9,68.1,29.99,North,350,0.0,2.0,94,0.00,,,0.00,VWS V14.01,2013-07-21 11:35:00,
2013-07-21 06:40:00,70.0,68.2,29.98,North,349,0.0,2.0,94,0.00,,,0.00,VWS V14.01,2013-07-21 11:40:00,
2013-07-21 06:45:00,70.2,68.1,29.99,North,350,0.0,2.0,93,0.00,,,0.00,VWS V14.01,2013-07-21 11:45:00,
2013-07-21 06:50:00,70.3,68.2,29.98,North,350,0.0,2.0,93,0.00,,,0.00,VWS V14.01,2013-07-21 11:50:00,
2013-07-21 06:55:00,70.5,68.4,29.98,North,360,0.0,2.0,93,0.00,,,0.00,VWS V14.01,2013-07-21 11:55:00,
2013-07-21 07:00:00,70.7,68.6,29.98,ENE,68,0.0,2.0,93,0.00,,,0.00,VWS V14.01,2013-07-21 12:00:00,
2013-07-21 07:05:00,70.9,68.8,29.98,ENE,68,0.0,2.0,93,0.00,,,0.00,VWS V14.01,2013-07-21 12:05:00,
2013-07-21 07:10:00,71.2,68.8,29.98,ENE,69,0.0,2.0,92,0.00,,,0.00,VWS V14.01,2013-07-21 12:10:00,
2013-07-21 07:15:00,71.6,69.2,29.98,ENE,70,0.0,2.0,92,0.00,,,0.00,VWS V14.01,2013-07-21 12:15:00,
2013-07-21 07:20:00,71.9,69.1,29.98,ENE,70,0.0,2.0,91,0.00,,,0.00,VWS V14.01,2013-07-21 12:20:00,
2013-07-21 07:25:00,72.1,68.7,29.98,ENE,67,1.5,2.0,89,0.00,,,0.00,VWS V14.01,2013-07-21 12:25:00,
2013-07-21 07:30:00,72.3,69.2,29.98,East,87,0.0,2.0,90,0.00,,,0.00,VWS V14.01,2013-07-21 12:30:00,
2013-07-21 07:35:00,72.4,69.0,29.99,NE,51,1.5,2.0,89,0.00,,,0.00,VWS V14.01,2013-07-21 12:35:00,
2013-07-21 07:40:00,72.4,69.0,29.99,ENE,77,0.0,2.0,89,0.00,,,0.00,VWS V14.01,2013-07-21 12:40:00,
2013-07-21 07:45:00,72.4,69.0,29.99,ENE,77,0.0,2.0,89,0.00,,,0.00,VWS V14.01,2013-07-21 12:45:00,
2013-07-21 07:50:00,72.5,69.1,29.99,East,94,0.0,2.0,89,0.00,,,0.00,VWS V14.01,2013-07-21 12:50:00,
2013-07-21 07:55:00,72.6,68.8,29.99,East,91,0.0,2.0,88,0.00,,,0.00,VWS V14.01,2013-07-21 12:55:00,
2013-07-21 08:00:00,72.8,69.4,29.98,ENE,71,0.0,1.0,89,0.00,,,0.00,VWS V14.01,2013-07-21 13:00:00,
2013-07-21 08:05:00,73.1,69.3,29.98,ENE,70,0.0,1.0,88,0.00,,,0.00,VWS V14.01,2013-07-21 13:05:00,
2013-07-21 08:10:00,73.4,69.6,29.98,ENE,73,0.0,1.0,88,0.00,,,0.00,VWS V14.01,2013-07-21 13:10:00,
2013-07-21 08:15:00,73.9,69.4,29.98,ENE,77,1.5,1.5,86,0.00,,,0.00,VWS V14.01,2013-07-21 13:15:00,
2013-07-21 08:20:00,74.2,69.4,29.98,ENE,75,0.0,1.0,85,0.00,,,0.00,VWS V14.01,2013-07-21 13:20:00,
2013-07-21 08:25:00,74.4,69.9,29.99,East,92,1.5,1.5,86,0.00,,,0.00,VWS V14.01,2013-07-21 13:25:00,
2013-07-21 08:30:00,74.6,69.8,29.99,ESE,107,0.0,1.0,85,0.00,,,0.00,VWS V14.01,2013-07-21 13:30:00,
2013-07-21 08:35:00,74.6,69.8,29.99,ENE,77,0.0,2.0,85,0.00,,,0.00,VWS V14.01,2013-07-21 13:35:00,
2013-07-21 08:40:00,74.7,69.9,29.99,South,180,0.0,2.0,85,0.00,,,0.00,VWS V14.01,2013-07-21 13:40:00,
2013-07-21 08:45:00,74.9,70.1,29.99,South,180,0.0,2.0,85,0.00,,,0.00,VWS V14.01,2013-07-21 13:45:00,
2013-07-21 08:50:00,75.1,70.3,29.99,South,180,0.0,2.0,85,0.00,,,0.00,VWS V14.01,2013-07-21 13:50:00,
2013-07-21 08:55:00,75.4,69.9,29.99,East,98,0.0,2.0,83,0.00,,,0.00,VWS V14.01,2013-07-21 13:55:00,
2013-07-21 09:00:00,75.6,70.4,30.00,East,97,0.0,2.0,84,0.00,,,0.00,VWS V14.01,2013-07-21 14:00:00,
2013-07-21 09:05:00,75.8,70.6,30.00,East,97,0.0,2.0,84,0.00,,,0.00,VWS V14.01,2013-07-21 14:05:00,
2013-07-21 09:10:00,76.0,70.5,29.99,East,97,0.0,2.0,83,0.00,,,0.00,VWS V14.01,2013-07-21 14:10:00,
2013-07-21 09:15:00,76.0,70.5,29.99,South,176,0.0,2.0,83,0.00,,,0.00,VWS V14.01,2013-07-21 14:15:00,
2013-07-21 09:20:00,76.1,70.6,29.99,SE,131,0.0,2.0,83,0.00,,,0.00,VWS V14.01,2013-07-21 14:20:00,
2013-07-21 09:25:00,76.3,70.8,29.99,SSE,158,0.0,2.0,83,0.00,,,0.00,VWS V14.01,2013-07-21 14:25:00,
2013-07-21 09:30:00,76.6,70.7,29.99,ESE,110,1.5,2.0,82,0.00,,,0.00,VWS V14.01,2013-07-21 14:30:00,
2013-07-21 09:35:00,76.8,70.5,29.99,SE,131,0.0,3.0,81,0.00,,,0.00,VWS V14.01,2013-07-21 14:35:00,
2013-07-21 09:40:00,77.2,70.9,29.99,SSE,165,1.5,3.0,81,0.00,,,0.00,VWS V14.01,2013-07-21 14:40:00,
2013-07-21 09:45:00,77.4,71.5,29.99,ESE,103,1.5,3.0,82,0.00,,,0.00,VWS V14.01,2013-07-21 14:45:00,
2013-07-21 09:50:00,77.6,70.9,29.99,ESE,111,3.0,4.0,80,0.00,,,0.00,VWS V14.01,2013-07-21 14:50:00,
2013-07-21 09:55:00,77.7,71.4,29.99,WSW,245,1.5,4.0,81,0.00,,,0.00,VWS V14.01,2013-07-21 14:55:00,
2013-07-21 10:00:00,77.9,71.2,29.99,South,172,3.0,3.0,80,0.00,,,0.00,VWS V14.01,2013-07-21 15:00:00,
2013-07-21 10:05:00,78.1,71.4,29.99,SSW,200,0.0,3.0,80,0.00,,,0.00,VWS V14.01,2013-07-21 15:05:00,
2013-07-21 10:10:00,78.2,71.5,29.99,SE,124,6.0,6.0,80,0.00,,,0.00,VWS V14.01,2013-07-21 15:10:00,
2013-07-21 10:15:00,78.3,71.6,29.99,SSE,162,1.5,4.0,80,0.00,,,0.00,VWS V14.01,2013-07-21 15:15:00,
2013-07-21 10:20:00,78.3,71.6,29.99,SSE,153,0.0,4.0,80,0.00,,,0.00,VWS V14.01,2013-07-21 15:20:00,
2013-07-21 10:25:00,78.2,71.5,29.99,SSE,168,3.0,4.0,80,0.00,,,0.00,VWS V14.01,2013-07-21 15:25:00,
2013-07-21 10:30:00,78.2,71.9,29.99,SSE,160,0.0,4.0,81,0.00,,,0.00,VWS V14.01,2013-07-21 15:30:00,
2013-07-21 10:35:00,78.1,71.4,29.99,SSW,210,3.0,5.0,80,0.00,,,0.00,VWS V14.01,2013-07-21 15:35:00,
2013-07-21 10:40:00,77.9,71.2,29.99,South,188,1.5,5.0,80,0.00,,,0.00,VWS V14.01,2013-07-21 15:40:00,
2013-07-21 10:45:00,77.9,72.0,29.99,SSE,160,0.0,5.0,82,0.00,,,0.00,VWS V14.01,2013-07-21 15:45:00,
2013-07-21 10:50:00,77.9,71.6,30.00,SSE,158,0.0,5.0,81,0.00,,,0.00,VWS V14.01,2013-07-21 15:50:00,
2013-07-21 10:55:00,77.7,71.4,30.00,SSE,165,0.0,5.0,81,0.00,,,0.00,VWS V14.01,2013-07-21 15:55:00,
2013-07-21 11:00:00,77.6,71.7,30.00,SW,219,0.0,5.0,82,0.00,,,0.00,VWS V14.01,2013-07-21 16:00:00,
2013-07-21 11:05:00,77.5,71.9,30.00,SSE,160,0.0,5.0,83,0.00,,,0.00,VWS V14.01,2013-07-21 16:05:00,
2013-07-21 11:10:00,77.3,72.1,30.00,SSE,163,0.0,5.0,84,0.00,,,0.00,VWS V14.01,2013-07-21 16:10:00,
2013-07-21 11:15:00,77.0,72.2,30.00,South,176,0.0,5.0,85,0.00,,,0.00,VWS V14.01,2013-07-21 16:15:00,
2013-07-21 11:20:00,76.6,72.1,30.00,SSE,153,1.5,5.0,86,0.00,,,0.00,VWS V14.01,2013-07-21 16:20:00,
2013-07-21 11:25:00,76.2,72.4,30.00,SW,222,0.0,5.0,88,0.01,,,0.01,VWS V14.01,2013-07-21 16:25:00,
2013-07-21 11:30:00,76.0,72.5,30.00,SW,222,0.0,5.0,89,0.01,,,0.01,VWS V14.01,2013-07-21 16:30:00,
2013-07-21 11:35:00,75.7,72.2,30.00,SSE,156,0.0,5.0,89,0.02,,,0.02,VWS V14.01,2013-07-21 16:35:00,
2013-07-21 11:40:00,75.5,72.4,30.01,SSE,156,0.0,5.0,90,0.02,,,0.02,VWS V14.01,2013-07-21 16:40:00,
2013-07-21 11:45:00,75.3,72.5,30.01,SSE,156,0.0,5.0,91,0.03,,,0.03,VWS V14.01,2013-07-21 16:45:00,
2013-07-21 11:50:00,75.2,72.7,30.01,SSE,156,0.0,5.0,92,0.04,,,0.04,VWS V14.01,2013-07-21 16:50:00,
2013-07-21 11:55:00,75.1,72.6,30.01,SSE,156,0.0,5.0,92,0.05,,,0.05,VWS V14.01,2013-07-21 16:55:00,
2013-07-21 12:00:00,75.1,72.9,30.01,SSE,157,0.0,0.0,93,0.00,,,0.06,VWS V14.01,2013-07-21 17:00:00,
2013-07-21 12:05:00,75.0,72.8,30.01,SSE,156,0.0,0.0,93,0.01,,,0.07,VWS V14.01,2013-07-21 17:05:00,
2013-07-21 12:10:00,75.0,73.2,30.01,SSE,156,0.0,0.0,94,0.01,,,0.07,VWS V14.01,2013-07-21 17:10:00,
2013-07-21 12:15:00,75.0,72.8,30.01,SSE,155,0.0,0.0,93,0.02,,,0.08,VWS V14.01,2013-07-21 17:15:00,
2013-07-21 12:20:00,74.9,73.1,30.01,SSE,156,0.0,0.0,94,0.02,,,0.08,VWS V14.01,2013-07-21 17:20:00,
2013-07-21 12:25:00,74.9,72.7,30.00,SSE,156,0.0,0.0,93,0.03,,,0.09,VWS V14.01,2013-07-21 17:25:00,
2013-07-21 12:30:00,75.1,73.3,30.00,SSE,156,0.0,0.0,94,0.03,,,0.09,VWS V14.01,2013-07-21 17:30:00,
2013-07-21 12:35:00,75.1,72.9,30.00,SSE,156,0.0,0.0,93,0.03,,,0.09,VWS V14.01,2013-07-21 17:35:00,
2013-07-21 12:40:00,75.1,73.3,30.00,SSE,156,0.0,0.0,94,0.03,,,0.09,VWS V14.01,2013-07-21 17:40:00,
2013-07-21 12:45:00,75.2,73.4,29.99,SSE,156,0.0,0.0,94,0.03,,,0.09,VWS V14.01,2013-07-21 17:45:00,
2013-07-21 12:50:00,75.4,73.9,29.99,SSE,155,0.0,0.0,95,0.03,,,0.09,VWS V14.01,2013-07-21 17:50:00,
2013-07-21 12:55:00,75.4,73.6,29.99,SSE,156,0.0,0.0,94,0.04,,,0.10,VWS V14.01,2013-07-21 17:55:00,
2013-07-21 13:00:00,75.5,74.0,29.99,SSE,156,0.0,0.0,95,0.04,,,0.10,VWS V14.01,2013-07-21 18:00:00,
2013-07-21 13:05:00,75.6,74.1,29.99,SSE,156,0.0,0.0,95,0.04,,,0.10,VWS V14.01,2013-07-21 18:05:00,
2013-07-21 13:10:00,75.6,74.1,29.99,SSE,156,0.0,0.0,95,0.04,,,0.10,VWS V14.01,2013-07-21 18:10:00,
2013-07-21 13:15:00,75.7,73.8,29.98,SSE,155,0.0,0.0,94,0.04,,,0.10,VWS V14.01,2013-07-21 18:15:00,
2013-07-21 13:20:00,75.9,74.4,29.98,ESE,118,0.0,0.0,95,0.04,,,0.10,VWS V14.01,2013-07-21 18:20:00,
2013-07-21 13:25:00,76.1,74.2,29.97,SE,141,0.0,0.0,94,0.04,,,0.10,VWS V14.01,2013-07-21 18:25:00,
2013-07-21 13:30:00,76.3,74.4,29.97,SE,141,0.0,0.0,94,0.04,,,0.10,VWS V14.01,2013-07-21 18:30:00,
2013-07-21 13:35:00,76.6,74.4,29.97,SE,141,0.0,0.0,93,0.04,,,0.10,VWS V14.01,2013-07-21 18:35:00,
2013-07-21 13:40:00,76.8,74.6,29.97,SSW,208,0.0,3.0,93,0.04,,,0.10,VWS V14.01,2013-07-21 18:40:00,
2013-07-21 13:45:00,76.9,74.7,29.98,SW,231,0.0,3.0,93,0.04,,,0.10,VWS V14.01,2013-07-21 18:45:00,
2013-07-21 13:50:00,76.8,74.6,29.97,ESE,117,0.0,3.0,93,0.04,,,0.10,VWS V14.01,2013-07-21 18:50:00,
2013-07-21 13:55:00,77.0,74.5,29.97,SSE,150,1.5,3.0,92,0.04,,,0.10,VWS V14.01,2013-07-21 18:55:00,
2013-07-21 14:00:00,77.0,74.2,29.97,SSE,154,1.5,1.5,91,0.00,,,0.10,VWS V14.01,2013-07-21 19:00:00,
2013-07-21 14:05:00,77.0,74.5,29.97,South,184,3.0,3.0,92,0.00,,,0.10,VWS V14.01,2013-07-21 19:05:00,
2013-07-21 14:10:00,77.0,74.5,29.97,SW,219,0.0,2.0,92,0.00,,,0.10,VWS V14.01,2013-07-21 19:10:00,
2013-07-21 14:15:00,76.9,74.1,29.97,South,191,0.0,2.0,91,0.00,,,0.10,VWS V14.01,2013-07-21 19:15:00,
2013-07-21 14:20:00,76.7,74.2,29.96,SSE,164,0.0,2.0,92,0.01,,,0.11,VWS V14.01,2013-07-21 19:20:00,
2013-07-21 14:25:00,76.7,74.5,29.96,SSE,165,0.0,2.0,93,0.01,,,0.11,VWS V14.01,2013-07-21 19:25:00,
2013-07-21 14:30:00,76.6,74.4,29.97,SE,136,0.0,2.0,93,0.01,,,0.11,VWS V14.01,2013-07-21 19:30:00,
2013-07-21 14:35:00,76.4,73.9,29.96,SSW,201,1.5,3.0,92,0.03,,,0.13,VWS V14.01,2013-07-21 19:35:00,
2013-07-21 14:40:00,76.2,74.0,29.95,SSE,160,0.0,3.0,93,0.05,,,0.15,VWS V14.01,2013-07-21 19:40:00,
2013-07-21 14:45:00,76.1,73.9,29.95,South,169,0.0,3.0,93,0.06,,,0.16,VWS V14.01,2013-07-21 19:45:00,
2013-07-21 14:50:00,76.1,73.9,29.94,South,184,1.5,3.0,93,0.07,,,0.17,VWS V14.01,2013-07-21 19:50:00,
2013-07-21 14:55:00,76.4,74.6,29.94,South,169,0.0,3.0,94,0.07,,,0.17,VWS V14.01,2013-07-21 19:55:00,
2013-07-21 15:00:00,76.4,73.9,29.94,South,170,0.0,3.0,92,0.07,,,0.17,VWS V14.01,2013-07-21 20:00:00,
2013-07-21 15:05:00,76.5,74.3,29.94,South,170,0.0,3.0,93,0.07,,,0.17,VWS V14.01,2013-07-21 20:05:00,
2013-07-21 15:10:00,76.6,74.4,29.94,SE,146,1.5,3.0,93,0.07,,,0.17,VWS V14.01,2013-07-21 20:10:00,
2013-07-21 15:15:00,76.8,74.6,29.93,SSE,162,0.0,3.0,93,0.07,,,0.17,VWS V14.01,2013-07-21 20:15:00,
2013-07-21 15:20:00,76.9,74.7,29.93,SSE,166,0.0,3.0,93,0.07,,,0.17,VWS V14.01,2013-07-21 20:20:00,
2013-07-21 15:25:00,76.8,74.0,29.93,SW,221,0.0,3.0,91,0.07,,,0.17,VWS V14.01,2013-07-21 20:25:00,
2013-07-21 15:30:00,76.9,74.4,29.93,SSE,155,0.0,3.0,92,0.07,,,0.17,VWS V14.01,2013-07-21 20:30:00,
2013-07-21 15:35:00,77.3,74.8,29.93,SE,141,1.5,3.0,92,0.07,,,0.17,VWS V14.01,2013-07-21 20:35:00,
2013-07-21 15:40:00,77.7,74.5,29.93,South,170,6.0,6.0,90,0.07,,,0.17,VWS V14.01,2013-07-21 20:40:00,
2013-07-21 15:45:00,78.2,75.0,29.92,South,188,3.0,6.0,90,0.07,,,0.17,VWS V14.01,2013-07-21 20:45:00,
2013-07-21 15:50:00,78.7,75.9,29.92,East,101,0.0,6.0,91,0.07,,,0.17,VWS V14.01,2013-07-21 20:50:00,
2013-07-21 15:55:00,79.0,75.2,29.92,SE,143,0.0,6.0,88,0.07,,,0.17,VWS V14.01,2013-07-21 20:55:00,
2013-07-21 16:00:00,79.1,75.2,29.92,South,170,0.0,0.0,88,0.00,,,0.17,VWS V14.01,2013-07-21 21:00:00,
2013-07-21 16:05:00,79.5,76.0,29.92,SSE,155,1.5,2.0,89,0.00,,,0.17,VWS V14.01,2013-07-21 21:05:00,
2013-07-21 16:10:00,79.6,75.7,29.92,South,172,0.0,2.0,88,0.00,,,0.17,VWS V14.01,2013-07-21 21:10:00,
2013-07-21 16:15:00,79.7,75.8,29.91,South,174,1.5,2.0,88,0.00,,,0.17,VWS V14.01,2013-07-21 21:15:00,
2013-07-21 16:20:00,79.6,74.3,29.91,SE,143,1.5,5.0,84,0.00,,,0.17,VWS V14.01,2013-07-21 21:20:00,
2013-07-21 16:25:00,79.4,74.5,29.91,South,175,1.5,5.0,85,0.00,,,0.17,VWS V14.01,2013-07-21 21:25:00,
2013-07-21 16:30:00,79.2,75.0,29.91,South,174,0.0,5.0,87,0.00,,,0.17,VWS V14.01,2013-07-21 21:30:00,
2013-07-21 16:35:00,79.0,74.8,29.91,SSE,162,0.0,5.0,87,0.00,,,0.17,VWS V14.01,2013-07-21 21:35:00,
2013-07-21 16:40:00,79.0,74.5,29.91,South,179,3.0,5.0,86,0.00,,,0.17,VWS V14.01,2013-07-21 21:40:00,
2013-07-21 16:45:00,79.3,74.8,29.91,SSE,150,0.0,5.0,86,0.00,,,0.17,VWS V14.01,2013-07-21 21:45:00,
2013-07-21 16:50:00,79.8,75.6,29.91,South,187,1.5,5.0,87,0.00,,,0.17,VWS V14.01,2013-07-21 21:50:00,
2013-07-21 16:55:00,80.3,75.0,29.91,SSE,148,3.0,5.0,84,0.00,,,0.17,VWS V14.01,2013-07-21 21:55:00,
2013-07-21 17:00:00,80.7,75.1,29.91,South,187,3.0,5.0,83,0.00,,,0.17,VWS V14.01,2013-07-21 22:00:00,
2013-07-21 17:05:00,81.2,75.2,29.91,SW,214,0.0,5.0,82,0.00,,,0.17,VWS V14.01,2013-07-21 22:05:00,
2013-07-21 17:10:00,81.2,74.1,29.90,SSE,159,6.0,6.0,79,0.00,,,0.17,VWS V14.01,2013-07-21 22:10:00,
2013-07-21 17:15:00,81.4,73.9,29.90,SSW,193,3.0,6.0,78,0.00,,,0.17,VWS V14.01,2013-07-21 22:15:00,
2013-07-21 17:20:00,81.7,74.2,29.90,SSE,160,4.5,6.0,78,0.00,,,0.17,VWS V14.01,2013-07-21 22:20:00,
2013-07-21 17:25:00,82.1,74.9,29.90,SSE,165,3.0,6.0,79,0.00,,,0.17,VWS V14.01,2013-07-21 22:25:00,
2013-07-21 17:30:00,82.3,75.1,29.90,SW,222,1.5,6.0,79,0.00,,,0.17,VWS V14.01,2013-07-21 22:30:00,
2013-07-21 17:35:00,82.6,75.1,29.90,SSE,159,0.0,6.0,78,0.00,,,0.17,VWS V14.01,2013-07-21 22:35:00,
2013-07-21 17:40:00,82.8,74.5,29.90,South,184,3.0,6.0,76,0.00,,,0.17,VWS V14.01,2013-07-21 22:40:00,
2013-07-21 17:45:00,82.8,74.1,29.90,South,170,3.0,6.0,75,0.00,,,0.17,VWS V14.01,2013-07-21 22:45:00,
2013-07-21 17:50:00,82.9,73.8,29.90,SSW,198,3.0,6.0,74,0.00,,,0.17,VWS V14.01,2013-07-21 22:50:00,
2013-07-21 17:55:00,82.9,73.8,29.90,SSW,209,1.5,6.0,74,0.00,,,0.17,VWS V14.01,2013-07-21 22:55:00,
2013-07-21 18:00:00,82.9,74.2,29.90,SSW,205,0.0,2.0,75,0.00,,,0.17,VWS V14.01,2013-07-21 23:00:00,
2013-07-21 18:05:00,83.0,74.3,29.90,SSW,208,0.0,3.0,75,0.00,,,0.17,VWS V14.01,2013-07-21 23:05:00,
2013-07-21 18:10:00,83.2,74.1,29.90,SSE,167,3.0,3.0,74,0.00,,,0.17,VWS V14.01,2013-07-21 23:10:00,
2013-07-21 18:15:00,83.5,73.9,29.90,South,187,1.5,4.0,73,0.00,,,0.17,VWS V14.01,2013-07-21 23:15:00,
2013-07-21 18:20:00,83.5,74.3,29.90,SE,139,3.0,4.0,74,0.00,,,0.17,VWS V14.01,2013-07-21 23:20:00,
2013-07-21 18:25:00,83.6,74.0,29.90,SE,124,1.5,4.0,73,0.00,,,0.17,VWS V14.01,2013-07-21 23:25:00,
2013-07-21 18:30:00,83.7,73.7,29.90,SSW,203,4.5,6.0,72,0.00,,,0.17,VWS V14.01,2013-07-21 23:30:00,
2013-07-21 18:35:00,83.6,74.0,29.90,SSE,155,7.5,7.5,73,0.00,,,0.17,VWS V14.01,2013-07-21 23:35:00,
2013-07-21 18:40:00,83.6,74.0,29.90,SSE,163,1.5,6.0,73,0.00,,,0.17,VWS V14.01,2013-07-21 23:40:00,
2013-07-21 18:45:00,83.6,74.0,29.90,South,181,6.0,6.0,73,0.00,,,0.17,VWS V14.01,2013-07-21 23:45:00,
2013-07-21 18:50:00,83.6,74.0,29.90,South,190,3.0,6.0,73,0.00,,,0.17,VWS V14.01,2013-07-21 23:50:00,
2013-07-21 18:55:00,83.5,73.9,29.90,SSW,210,1.5,6.0,73,0.00,,,0.17,VWS V14.01,2013-07-21 23:55:00,
2013-07-21 19:00:00,83.4,73.8,29.89,SW,217,3.0,7.0,73,0.00,,,0.17,VWS V14.01,2013-07-22 00:00:00,
2013-07-21 19:05:00,83.4,73.8,29.90,SSE,148,3.0,7.0,73,0.00,,,0.17,VWS V14.01,2013-07-22 00:05:00,
2013-07-21 19:10:00,83.4,73.8,29.89,South,183,3.0,7.0,73,0.00,,,0.17,VWS V14.01,2013-07-22 00:10:00,
2013-07-21 19:15:00,83.3,73.8,29.89,SSE,160,4.5,7.0,73,0.00,,,0.17,VWS V14.01,2013-07-22 00:15:00,
2013-07-21 19:20:00,83.2,74.1,29.89,SSE,167,3.0,7.0,74,0.00,,,0.17,VWS V14.01,2013-07-22 00:20:00,
2013-07-21 19:25:00,83.2,74.1,29.90,SSE,156,3.0,7.0,74,0.00,,,0.17,VWS V14.01,2013-07-22 00:25:00,
2013-07-21 19:30:00,83.2,74.1,29.90,SW,215,3.0,7.0,74,0.00,,,0.17,VWS V14.01,2013-07-22 00:30:00,
2013-07-21 19:35:00,83.3,74.2,29.90,SSE,167,3.0,7.0,74,0.00,,,0.17,VWS V14.01,2013-07-22 00:35:00,
2013-07-21 19:40:00,83.3,74.2,29.90,South,176,1.5,7.0,74,0.00,,,0.17,VWS V14.01,2013-07-22 00:40:00,
2013-07-21 19:45:00,83.2,74.1,29.90,South,174,0.0,7.0,74,0.00,,,0.17,VWS V14.01,2013-07-22 00:45:00,
2013-07-21 19:50:00,83.0,73.9,29.90,SSE,158,0.0,7.0,74,0.00,,,0.17,VWS V14.01,2013-07-22 00:50:00,
2013-07-21 19:55:00,82.8,74.1,29.90,South,174,3.0,7.0,75,0.00,,,0.17,VWS V14.01,2013-07-22 00:55:00,
2013-07-21 20:00:00,82.7,74.0,29.90,South,187,0.0,7.0,75,0.00,,,0.17,VWS V14.01,2013-07-22 01:00:00,
2013-07-21 20:05:00,82.4,73.7,29.90,South,169,0.0,2.0,75,0.00,,,0.17,VWS V14.01,2013-07-22 01:05:00,
2013-07-21 20:10:00,82.3,74.0,29.90,South,174,0.0,4.0,76,0.00,,,0.17,VWS V14.01,2013-07-22 01:10:00,
2013-07-21 20:15:00,82.2,73.9,29.90,SSE,166,1.5,5.0,76,0.00,,,0.17,VWS V14.01,2013-07-22 01:15:00,
2013-07-21 20:20:00,82.1,73.8,29.90,South,177,0.0,5.0,76,0.00,,,0.17,VWS V14.01,2013-07-22 01:20:00,
2013-07-21 20:25:00,82.0,73.7,29.90,SSE,164,0.0,5.0,76,0.00,,,0.17,VWS V14.01,2013-07-22 01:25:00,
2013-07-21 20:30:00,81.9,73.6,29.90,SSE,166,0.0,5.0,76,0.00,,,0.17,VWS V14.01,2013-07-22 01:30:00,
2013-07-21 20:35:00,81.7,73.4,29.90,South,180,0.0,5.0,76,0.00,,,0.17,VWS V14.01,2013-07-22 01:35:00,
2013-07-21 20:40:00,81.6,73.3,29.90,SSE,147,0.0,5.0,76,0.00,,,0.17,VWS V14.01,2013-07-22 01:40:00,
2013-07-21 20:45:00,81.4,73.1,29.90,SSE,160,0.0,5.0,76,0.00,,,0.17,VWS V14.01,2013-07-22 01:45:00,
2013-07-21 20:50:00,81.2,72.9,29.90,SSE,153,0.0,5.0,76,0.00,,,0.17,VWS V14.01,2013-07-22 01:50:00,
2013-07-21 20:55:00,81.1,72.8,29.90,SSE,167,0.0,5.0,76,0.00,,,0.17,VWS V14.01,2013-07-22 01:55:00,
2013-07-21 21:00:00,80.9,73.0,29.90,SW,217,0.0,5.0,77,0.00,,,0.17,VWS V14.01,2013-07-22 02:00:00,
2013-07-21 21:05:00,80.7,72.8,29.90,South,190,0.0,5.0,77,0.00,,,0.17,VWS V14.01,2013-07-22 02:05:00,
2013-07-21 21:10:00,80.4,72.9,29.91,South,180,0.0,5.0,78,0.00,,,0.17,VWS V14.01,2013-07-22 02:10:00,
2013-07-21 21:15:00,80.1,72.6,29.91,SSE,160,0.0,5.0,78,0.00,,,0.17,VWS V14.01,2013-07-22 02:15:00,
2013-07-21 21:20:00,79.8,72.7,29.91,SSE,160,0.0,5.0,79,0.00,,,0.17,VWS V14.01,2013-07-22 02:20:00,
2013-07-21 21:25:00,79.6,72.5,29.91,SSE,160,1.5,5.0,79,0.00,,,0.17,VWS V14.01,2013-07-22 02:25:00,
2013-07-21 21:30:00,79.4,72.3,29.91,SSE,167,0.0,5.0,79,0.00,,,0.17,VWS V14.01,2013-07-22 02:30:00,
2013-07-21 21:35:00,79.2,72.1,29.91,South,173,0.0,5.0,79,0.00,,,0.17,VWS V14.01,2013-07-22 02:35:00,
2013-07-21 21:40:00,79.2,72.1,29.91,SSE,162,0.0,5.0,79,0.00,,,0.17,VWS V14.01,2013-07-22 02:40:00,
2013-07-21 21:45:00,79.0,71.9,29.91,SSE,162,0.0,5.0,79,0.00,,,0.17,VWS V14.01,2013-07-22 02:45:00,
2013-07-21 21:50:00,78.9,72.2,29.91,SSE,162,0.0,5.0,80,0.00,,,0.17,VWS V14.01,2013-07-22 02:50:00,
2013-07-21 21:55:00,78.8,72.1,29.91,SSE,158,0.0,5.0,80,0.00,,,0.17,VWS V14.01,2013-07-22 02:55:00,
2013-07-21 22:00:00,78.8,72.1,29.91,SSW,198,0.0,0.0,80,0.00,,,0.17,VWS V14.01,2013-07-22 03:00:00,
2013-07-21 22:05:00,78.8,72.1,29.91,SSE,156,0.0,2.0,80,0.00,,,0.17,VWS V14.01,2013-07-22 03:05:00,
2013-07-21 22:10:00,78.7,72.0,29.91,South,170,1.5,2.0,80,0.00,,,0.17,VWS V14.01,2013-07-22 03:10:00,
2013-07-21 22:15:00,78.6,71.9,29.91,South,172,0.0,2.0,80,0.00,,,0.17,VWS V14.01,2013-07-22 03:15:00,
2013-07-21 22:20:00,78.5,71.8,29.91,South,169,0.0,2.0,80,0.00,,,0.17,VWS V14.01,2013-07-22 03:20:00,
2013-07-21 22:25:00,78.3,72.0,29.92,SSE,155,0.0,2.0,81,0.00,,,0.17,VWS V14.01,2013-07-22 03:25:00,
2013-07-21 22:30:00,78.1,71.8,29.92,SSE,156,0.0,2.0,81,0.00,,,0.17,VWS V14.01,2013-07-22 03:30:00,
2013-07-21 22:35:00,78.0,71.7,29.92,SSE,158,0.0,2.0,81,0.00,,,0.17,VWS V14.01,2013-07-22 03:35:00,
2013-07-21 22:40:00,77.9,72.0,29.92,SSE,153,0.0,2.0,82,0.00,,,0.17,VWS V14.01,2013-07-22 03:40:00,
2013-07-21 22:45:00,77.8,71.9,29.92,SSE,152,0.0,2.0,82,0.00,,,0.17,VWS V14.01,2013-07-22 03:45:00,
2013-07-21 22:50:00,77.7,71.8,29.92,South,169,0.0,2.0,82,0.00,,,0.17,VWS V14.01,2013-07-22 03:50:00,
2013-07-21 22:55:00,77.9,72.0,29.92,SSE,159,0.0,2.0,82,0.00,,,0.17,VWS V14.01,2013-07-22 03:55:00,
2013-07-21 23:00:00,78.1,71.8,29.92,South,172,0.0,2.0,81,0.00,,,0.17,VWS V14.01,2013-07-22 04:00:00,
2013-07-21 23:01:00,78.1,71.8,29.92,South,173,0.0,2.0,81,0.00,,,0.17,VWS V14.01,2013-07-22 04:01:00,
2013-07-21 23:06:00,78.2,71.9,29.92,South,176,3.0,3.0,81,0.00,,,0.17,VWS V14.01,2013-07-22 04:06:00,
2013-07-21 23:11:00,78.4,71.7,29.92,SSE,155,0.0,5.0,80,0.00,,,0.17,VWS V14.01,2013-07-22 04:11:00,
2013-07-21 23:16:00,78.6,71.9,29.92,SSE,162,0.0,5.0,80,0.00,,,0.17,VWS V14.01,2013-07-22 04:16:00,
2013-07-21 23:21:00,78.7,71.6,29.92,SSE,165,1.5,5.0,79,0.00,,,0.17,VWS V14.01,2013-07-22 04:21:00,
2013-07-21 23:26:00,78.8,71.7,29.92,SE,142,1.5,5.0,79,0.00,,,0.17,VWS V14.01,2013-07-22 04:26:00,
2013-07-21 23:31:00,78.8,71.7,29.92,SW,222,0.0,5.0,79,0.00,,,0.17,VWS V14.01,2013-07-22 04:31:00,
2013-07-21 23:36:00,78.7,72.0,29.92,South,173,0.0,5.0,80,0.00,,,0.17,VWS V14.01,2013-07-22 04:36:00,
2013-07-21 23:41:00,78.5,71.8,29.92,SSE,160,0.0,5.0,80,0.00,,,0.17,VWS V14.01,2013-07-22 04:41:00,
2013-07-21 23:46:00,78.4,71.7,29.92,South,172,3.0,5.0,80,0.00,,,0.17,VWS V14.01,2013-07-22 04:46:00,
2013-07-21 23:51:00,78.4,72.1,29.92,SSW,207,1.5,5.0,81,0.00,,,0.17,VWS V14.01,2013-07-22 04:51:00,
2013-07-21 23:56:00,78.3,71.6,29.92,SSW,211,0.0,6.0,80,0.00,,,0.17,VWS V14.01,2013-07-22 04:56:00,